sensor_id;sensor_type;location;lat;lon;timestamp;pressure;altitude;pressure_sealevel;temperature;humidity
37860;BME280;23698;52.014;5.190;2023-12-20T00:02:16;101532.00;;;16.00;100.00
37860;BME280;23698;52.014;5.190;2023-12-20T00:05:02;101522.09;;;15.66;100.00
37860;BME280;23698;52.014;5.190;2023-12-20T00:07:49;101516.94;;;15.16;100.00
37860;BME280;23698;52.014;5.190;2023-12-20T00:10:35;101518.25;;;15.34;100.00
37860;BME280;23698;52.014;5.190;2023-12-20T00:13:22;101502.44;;;15.09;100.00
37860;BME280;23698;52.014;5.190;2023-12-20T00:16:09;101505.50;;;13.81;100.00
37860;BME280;23698;52.014;5.190;2023-12-20T00:18:57;101512.03;;;14.50;100.00
37860;BME280;23698;52.014;5.190;2023-12-20T00:21:43;101507.63;;;14.49;100.00
37860;BME280;23698;52.014;5.190;2023-12-20T00:24:30;101501.47;;;14.68;100.00
37860;BME280;23698;52.014;5.190;2023-12-20T00:27:16;101504.19;;;14.68;100.00
37860;BME280;23698;52.014;5.190;2023-12-20T00:30:03;101498.91;;;15.15;100.00
37860;BME280;23698;52.014;5.190;2023-12-20T00:32:50;101508.38;;;15.39;100.00
37860;BME280;23698;52.014;5.190;2023-12-20T00:35:38;101509.72;;;14.82;100.00
37860;BME280;23698;52.014;5.190;2023-12-20T00:38:24;101522.50;;;14.46;100.00
37860;BME280;23698;52.014;5.190;2023-12-20T00:41:11;101506.88;;;15.10;100.00
37860;BME280;23698;52.014;5.190;2023-12-20T00:43:58;101506.13;;;15.83;100.00
37860;BME280;23698;52.014;5.190;2023-12-20T00:46:44;101518.16;;;15.00;100.00
37860;BME280;23698;52.014;5.190;2023-12-20T00:49:30;101510.94;;;15.74;100.00
37860;BME280;23698;52.014;5.190;2023-12-20T00:52:18;101508.88;;;15.83;100.00
37860;BME280;23698;52.014;5.190;2023-12-20T00:55:07;101504.88;;;15.79;100.00
37860;BME280;23698;52.014;5.190;2023-12-20T00:57:54;101510.72;;;15.49;100.00
37860;BME280;23698;52.014;5.190;2023-12-20T01:00:40;101509.03;;;15.55;100.00
37860;BME280;23698;52.014;5.190;2023-12-20T01:03:29;101513.81;;;15.19;100.00
37860;BME280;23698;52.014;5.190;2023-12-20T01:06:15;101509.19;;;15.20;100.00
37860;BME280;23698;52.014;5.190;2023-12-20T01:09:03;101504.41;;;14.39;100.00
37860;BME280;23698;52.014;5.190;2023-12-20T01:11:49;101507.19;;;16.02;100.00
37860;BME280;23698;52.014;5.190;2023-12-20T01:14:36;101514.91;;;16.38;100.00
37860;BME280;23698;52.014;5.190;2023-12-20T01:17:22;101515.56;;;15.54;100.00
37860;BME280;23698;52.014;5.190;2023-12-20T01:20:09;101513.81;;;15.19;100.00
37860;BME280;23698;52.014;5.190;2023-12-20T01:22:56;101505.69;;;14.78;100.00
37860;BME280;23698;52.014;5.190;2023-12-20T01:25:44;101513.50;;;15.82;100.00
37860;BME280;23698;52.014;5.190;2023-12-20T01:28:30;101522.44;;;14.68;100.00
37860;BME280;23698;52.014;5.190;2023-12-20T01:31:17;101531.56;;;15.70;100.00
37860;BME280;23698;52.014;5.190;2023-12-20T01:34:03;101526.91;;;14.82;100.00
37860;BME280;23698;52.014;5.190;2023-12-20T01:36:49;101518.84;;;15.16;100.00
37860;BME280;23698;52.014;5.190;2023-12-20T01:39:36;101508.06;;;15.01;100.00
37860;BME280;23698;52.014;5.190;2023-12-20T01:42:24;101503.34;;;15.29;100.00
37860;BME280;23698;52.014;5.190;2023-12-20T01:45:10;101491.78;;;14.66;100.00
37860;BME280;23698;52.014;5.190;2023-12-20T01:47:58;101495.16;;;14.68;100.00
37860;BME280;23698;52.014;5.190;2023-12-20T01:50:45;101498.16;;;14.45;100.00
37860;BME280;23698;52.014;5.190;2023-12-20T01:53:32;101497.50;;;15.73;100.00
37860;BME280;23698;52.014;5.190;2023-12-20T01:56:18;101509.31;;;14.91;100.00
37860;BME280;23698;52.014;5.190;2023-12-20T01:59:07;101504.16;;;16.37;100.00
37860;BME280;23698;52.014;5.190;2023-12-20T02:01:54;101501.28;;;15.98;100.00
37860;BME280;23698;52.014;5.190;2023-12-20T02:04:41;101506.31;;;15.41;100.00
37860;BME280;23698;52.014;5.190;2023-12-20T02:07:29;101505.25;;;14.74;100.00
37860;BME280;23698;52.014;5.190;2023-12-20T02:10:17;101496.25;;;14.39;100.00
37860;BME280;23698;52.014;5.190;2023-12-20T02:13:04;101497.03;;;15.29;100.00
37860;BME280;23698;52.014;5.190;2023-12-20T02:15:52;101496.00;;;15.43;100.00
37860;BME280;23698;52.014;5.190;2023-12-20T02:18:39;101503.16;;;15.58;100.00
37860;BME280;23698;52.014;5.190;2023-12-20T02:21:31;101503.81;;;15.73;100.00
37860;BME280;23698;52.014;5.190;2023-12-20T02:24:18;101507.19;;;16.02;100.00
37860;BME280;23698;52.014;5.190;2023-12-20T02:27:06;101499.00;;;15.82;100.00
37860;BME280;23698;52.014;5.190;2023-12-20T02:29:53;101496.31;;;15.00;100.00
37860;BME280;23698;52.014;5.190;2023-12-20T02:32:39;101493.06;;;16.90;100.00
37860;BME280;23698;52.014;5.190;2023-12-20T02:35:26;101482.97;;;15.52;100.00
37860;BME280;23698;52.014;5.190;2023-12-20T02:38:13;101480.06;;;15.87;100.00
37860;BME280;23698;52.014;5.190;2023-12-20T02:41:00;101492.63;;;14.66;100.00
37860;BME280;23698;52.014;5.190;2023-12-20T02:43:47;101481.66;;;15.21;100.00
37860;BME280;23698;52.014;5.190;2023-12-20T02:46:33;101478.91;;;15.01;100.00
37860;BME280;23698;52.014;5.190;2023-12-20T02:49:20;101482.75;;;15.34;100.00
37860;BME280;23698;52.014;5.190;2023-12-20T02:52:06;101484.25;;;16.10;100.00
37860;BME280;23698;52.014;5.190;2023-12-20T02:54:54;101482.34;;;15.97;100.00
37860;BME280;23698;52.014;5.190;2023-12-20T02:57:41;101482.16;;;14.35;100.00
37860;BME280;23698;52.014;5.190;2023-12-20T03:00:28;101473.53;;;15.88;100.00
37860;BME280;23698;52.014;5.190;2023-12-20T03:03:14;101475.16;;;15.36;100.00
37860;BME280;23698;52.014;5.190;2023-12-20T03:06:00;101466.97;;;16.22;100.00
37860;BME280;23698;52.014;5.190;2023-12-20T03:08:46;101458.91;;;14.87;100.00
37860;BME280;23698;52.014;5.190;2023-12-20T03:11:34;101453.69;;;15.06;100.00
37860;BME280;23698;52.014;5.190;2023-12-20T03:14:21;101445.91;;;14.96;100.00
37860;BME280;23698;52.014;5.190;2023-12-20T03:17:07;101442.41;;;15.22;100.00
37860;BME280;23698;52.014;5.190;2023-12-20T03:19:53;101443.88;;;15.38;100.00
37860;BME280;23698;52.014;5.190;2023-12-20T03:22:40;101445.63;;;14.71;100.00
37860;BME280;23698;52.014;5.190;2023-12-20T03:25:26;101445.97;;;15.36;100.00
37860;BME280;23698;52.014;5.190;2023-12-20T03:28:15;101449.75;;;15.42;100.00
37860;BME280;23698;52.014;5.190;2023-12-20T03:31:02;101452.28;;;15.70;100.00
37860;BME280;23698;52.014;5.190;2023-12-20T03:33:48;101451.44;;;15.70;100.00
37860;BME280;23698;52.014;5.190;2023-12-20T03:36:36;101454.00;;;15.78;100.00
37860;BME280;23698;52.014;5.190;2023-12-20T03:39:23;101451.44;;;15.83;100.00
37860;BME280;23698;52.014;5.190;2023-12-20T03:42:09;101453.31;;;16.09;100.00
37860;BME280;23698;52.014;5.190;2023-12-20T03:44:57;101440.47;;;14.96;100.00
37860;BME280;23698;52.014;5.190;2023-12-20T03:47:43;101452.25;;;14.55;100.00
37860;BME280;23698;52.014;5.190;2023-12-20T03:50:30;101451.22;;;15.51;100.00
37860;BME280;23698;52.014;5.190;2023-12-20T03:53:16;101444.44;;;15.00;100.00
37860;BME280;23698;52.014;5.190;2023-12-20T03:56:03;101448.78;;;14.75;100.00
37860;BME280;23698;52.014;5.190;2023-12-20T03:58:49;101451.84;;;16.72;100.00
37860;BME280;23698;52.014;5.190;2023-12-20T04:01:37;101453.09;;;15.17;100.00
37860;BME280;23698;52.014;5.190;2023-12-20T04:04:24;101456.66;;;15.18;100.00
37860;BME280;23698;52.014;5.190;2023-12-20T04:07:10;101464.47;;;15.47;100.00
37860;BME280;23698;52.014;5.190;2023-12-20T04:09:57;101458.38;;;15.45;100.00
37860;BME280;23698;52.014;5.190;2023-12-20T04:12:43;101456.91;;;15.90;100.00
37860;BME280;23698;52.014;5.190;2023-12-20T04:15:30;101453.88;;;16.38;100.00
37860;BME280;23698;52.014;5.190;2023-12-20T04:18:18;101466.75;;;16.24;100.00
37860;BME280;23698;52.014;5.190;2023-12-20T04:21:04;101459.59;;;16.23;100.00
37860;BME280;23698;52.014;5.190;2023-12-20T04:23:51;101457.94;;;16.02;100.00
37860;BME280;23698;52.014;5.190;2023-12-20T04:26:38;101454.44;;;16.60;100.00
37860;BME280;23698;52.014;5.190;2023-12-20T04:29:25;101444.16;;;14.68;100.00
37860;BME280;23698;52.014;5.190;2023-12-20T04:32:11;101447.06;;;14.25;100.00
37860;BME280;23698;52.014;5.190;2023-12-20T04:34:59;101449.84;;;14.87;100.00
37860;BME280;23698;52.014;5.190;2023-12-20T04:37:45;101454.19;;;15.43;100.00
37860;BME280;23698;52.014;5.190;2023-12-20T04:40:32;101451.97;;;14.85;100.00
37860;BME280;23698;52.014;5.190;2023-12-20T04:43:18;101451.00;;;14.58;100.00
37860;BME280;23698;52.014;5.190;2023-12-20T04:46:05;101446.81;;;14.20;100.00
37860;BME280;23698;52.014;5.190;2023-12-20T04:48:52;101431.47;;;14.54;100.00
37860;BME280;23698;52.014;5.190;2023-12-20T04:51:39;101438.50;;;14.83;100.00
37860;BME280;23698;52.014;5.190;2023-12-20T04:54:26;101431.81;;;13.68;100.00
37860;BME280;23698;52.014;5.190;2023-12-20T04:57:12;101431.88;;;15.46;100.00
37860;BME280;23698;52.014;5.190;2023-12-20T04:59:59;101425.69;;;14.70;100.00
37860;BME280;23698;52.014;5.190;2023-12-20T05:02:46;101426.63;;;14.49;100.00
37860;BME280;23698;52.014;5.190;2023-12-20T05:05:33;101428.00;;;14.73;100.00
37860;BME280;23698;52.014;5.190;2023-12-20T05:08:21;101433.19;;;13.57;100.00
37860;BME280;23698;52.014;5.190;2023-12-20T05:11:07;101431.19;;;14.97;100.00
37860;BME280;23698;52.014;5.190;2023-12-20T05:13:54;101438.28;;;14.71;100.00
37860;BME280;23698;52.014;5.190;2023-12-20T05:16:40;101438.91;;;14.73;100.00
37860;BME280;23698;52.014;5.190;2023-12-20T05:19:27;101426.66;;;15.38;100.00
37860;BME280;23698;52.014;5.190;2023-12-20T05:22:14;101436.66;;;14.01;100.00
37860;BME280;23698;52.014;5.190;2023-12-20T05:25:03;101429.38;;;15.44;100.00
37860;BME280;23698;52.014;5.190;2023-12-20T05:27:50;101435.91;;;15.83;100.00
37860;BME280;23698;52.014;5.190;2023-12-20T05:30:36;101434.28;;;13.91;100.00
37860;BME280;23698;52.014;5.190;2023-12-20T05:33:23;101440.06;;;14.51;100.00
37860;BME280;23698;52.014;5.190;2023-12-20T05:36:09;101424.19;;;14.61;100.00
37860;BME280;23698;52.014;5.190;2023-12-20T05:38:58;101434.44;;;13.83;100.00
37860;BME280;23698;52.014;5.190;2023-12-20T05:41:46;101427.81;;;14.75;100.00
37860;BME280;23698;52.014;5.190;2023-12-20T05:44:33;101440.22;;;14.43;100.00
37860;BME280;23698;52.014;5.190;2023-12-20T05:47:19;101438.53;;;14.35;100.00
37860;BME280;23698;52.014;5.190;2023-12-20T05:50:06;101439.53;;;14.27;100.00
37860;BME280;23698;52.014;5.190;2023-12-20T05:52:54;101435.81;;;14.00;100.00
37860;BME280;23698;52.014;5.190;2023-12-20T05:55:40;101442.72;;;14.38;100.00
37860;BME280;23698;52.014;5.190;2023-12-20T05:58:28;101447.09;;;14.73;100.00
37860;BME280;23698;52.014;5.190;2023-12-20T06:01:15;101447.31;;;14.30;100.00
37860;BME280;23698;52.014;5.190;2023-12-20T06:04:03;101442.94;;;14.84;100.00
37860;BME280;23698;52.014;5.190;2023-12-20T06:06:50;101443.41;;;13.76;100.00
37860;BME280;23698;52.014;5.190;2023-12-20T06:09:36;101437.00;;;14.67;100.00
37860;BME280;23698;52.014;5.190;2023-12-20T06:12:23;101437.91;;;14.05;100.00
37860;BME280;23698;52.014;5.190;2023-12-20T06:15:10;101439.88;;;15.54;100.00
37860;BME280;23698;52.014;5.190;2023-12-20T06:17:57;101435.03;;;15.56;100.00
37860;BME280;23698;52.014;5.190;2023-12-20T06:20:43;101429.44;;;14.63;100.00
37860;BME280;23698;52.014;5.190;2023-12-20T06:23:30;101438.81;;;14.12;100.00
37860;BME280;23698;52.014;5.190;2023-12-20T06:26:18;101425.94;;;14.96;100.00
37860;BME280;23698;52.014;5.190;2023-12-20T06:29:05;101437.34;;;15.19;100.00
37860;BME280;23698;52.014;5.190;2023-12-20T06:31:53;101442.63;;;14.18;100.00
37860;BME280;23698;52.014;5.190;2023-12-20T06:34:39;101431.72;;;13.54;100.00
37860;BME280;23698;52.014;5.190;2023-12-20T06:37:26;101426.97;;;13.63;100.00
37860;BME280;23698;52.014;5.190;2023-12-20T06:40:12;101430.19;;;15.18;100.00
37860;BME280;23698;52.014;5.190;2023-12-20T06:43:03;101436.03;;;13.70;100.00
37860;BME280;23698;52.014;5.190;2023-12-20T06:46:01;101425.59;;;14.09;100.00
37860;BME280;23698;52.014;5.190;2023-12-20T06:48:49;101421.78;;;14.03;100.00
37860;BME280;23698;52.014;5.190;2023-12-20T06:51:35;101424.66;;;13.95;100.00
37860;BME280;23698;52.014;5.190;2023-12-20T06:54:22;101424.63;;;14.23;100.00
37860;BME280;23698;52.014;5.190;2023-12-20T06:57:08;101427.22;;;14.45;100.00
37860;BME280;23698;52.014;5.190;2023-12-20T06:59:54;101419.19;;;14.85;100.00
37860;BME280;23698;52.014;5.190;2023-12-20T07:02:40;101420.38;;;13.79;100.00
37860;BME280;23698;52.014;5.190;2023-12-20T07:05:28;101415.25;;;14.87;100.00
37860;BME280;23698;52.014;5.190;2023-12-20T07:08:15;101420.84;;;14.72;100.00
37860;BME280;23698;52.014;5.190;2023-12-20T07:11:02;101419.47;;;14.48;100.00
37860;BME280;23698;52.014;5.190;2023-12-20T07:13:48;101425.75;;;14.97;100.00
37860;BME280;23698;52.014;5.190;2023-12-20T07:16:34;101406.81;;;14.82;100.00
37860;BME280;23698;52.014;5.190;2023-12-20T07:19:21;101409.09;;;14.24;100.00
37860;BME280;23698;52.014;5.190;2023-12-20T07:22:09;101404.97;;;14.96;100.00
37860;BME280;23698;52.014;5.190;2023-12-20T07:24:55;101398.72;;;14.47;100.00
37860;BME280;23698;52.014;5.190;2023-12-20T07:27:42;101392.47;;;14.60;100.00
37860;BME280;23698;52.014;5.190;2023-12-20T07:30:30;101390.66;;;14.32;100.00
37860;BME280;23698;52.014;5.190;2023-12-20T07:33:16;101388.25;;;14.09;100.00
37860;BME280;23698;52.014;5.190;2023-12-20T07:36:03;101394.91;;;15.77;100.00
37860;BME280;23698;52.014;5.190;2023-12-20T07:38:51;101384.81;;;15.04;100.00
37860;BME280;23698;52.014;5.190;2023-12-20T07:41:38;101391.53;;;14.95;100.00
37860;BME280;23698;52.014;5.190;2023-12-20T07:44:25;101397.00;;;15.08;100.00
37860;BME280;23698;52.014;5.190;2023-12-20T07:47:11;101399.69;;;16.08;100.00
37860;BME280;23698;52.014;5.190;2023-12-20T07:50:00;101411.06;;;13.38;100.00
37860;BME280;23698;52.014;5.190;2023-12-20T07:52:48;101406.44;;;15.99;100.00
37860;BME280;23698;52.014;5.190;2023-12-20T07:55:36;101417.59;;;15.17;100.00
37860;BME280;23698;52.014;5.190;2023-12-20T07:58:22;101416.84;;;13.85;100.00
37860;BME280;23698;52.014;5.190;2023-12-20T08:01:25;101413.69;;;14.65;100.00
37860;BME280;23698;52.014;5.190;2023-12-20T08:04:11;101419.56;;;14.62;100.00
37860;BME280;23698;52.014;5.190;2023-12-20T08:06:58;101425.16;;;14.47;100.00
37860;BME280;23698;52.014;5.190;2023-12-20T08:09:45;101424.09;;;14.48;100.00
37860;BME280;23698;52.014;5.190;2023-12-20T08:12:33;101435.63;;;14.02;100.00
37860;BME280;23698;52.014;5.190;2023-12-20T08:15:19;101424.94;;;15.97;100.00
37860;BME280;23698;52.014;5.190;2023-12-20T08:18:06;101433.19;;;14.20;100.00
37860;BME280;23698;52.014;5.190;2023-12-20T08:20:52;101425.34;;;14.52;100.00
37860;BME280;23698;52.014;5.190;2023-12-20T08:23:39;101434.25;;;14.19;100.00
37860;BME280;23698;52.014;5.190;2023-12-20T08:26:25;101429.03;;;14.72;100.00
37860;BME280;23698;52.014;5.190;2023-12-20T08:29:14;101413.94;;;14.70;100.00
37860;BME280;23698;52.014;5.190;2023-12-20T08:32:00;101415.19;;;13.63;100.00
37860;BME280;23698;52.014;5.190;2023-12-20T08:34:47;101416.94;;;13.98;100.00
37860;BME280;23698;52.014;5.190;2023-12-20T08:37:33;101402.47;;;15.08;100.00
37860;BME280;23698;52.014;5.190;2023-12-20T08:40:20;101405.34;;;14.86;100.00
37860;BME280;23698;52.014;5.190;2023-12-20T08:43:07;101400.53;;;14.95;100.00
37860;BME280;23698;52.014;5.190;2023-12-20T08:45:55;101409.00;;;15.60;100.00
37860;BME280;23698;52.014;5.190;2023-12-20T08:48:41;101406.69;;;15.24;100.00
37860;BME280;23698;52.014;5.190;2023-12-20T08:51:28;101415.56;;;14.16;100.00
37860;BME280;23698;52.014;5.190;2023-12-20T08:54:14;101412.88;;;14.78;100.00
37860;BME280;23698;52.014;5.190;2023-12-20T08:57:02;101426.63;;;15.24;100.00
37860;BME280;23698;52.014;5.190;2023-12-20T08:59:48;101418.03;;;15.88;100.00
37860;BME280;23698;52.014;5.190;2023-12-20T09:02:36;101412.81;;;14.58;100.00
37860;BME280;23698;52.014;5.190;2023-12-20T09:05:23;101415.03;;;14.96;100.00
37860;BME280;23698;52.014;5.190;2023-12-20T09:08:09;101416.91;;;14.88;100.00
37860;BME280;23698;52.014;5.190;2023-12-20T09:10:56;101415.88;;;14.41;100.00
37860;BME280;23698;52.014;5.190;2023-12-20T09:13:43;101413.06;;;14.63;100.00
37860;BME280;23698;52.014;5.190;2023-12-20T09:16:29;101416.75;;;14.42;100.00
37860;BME280;23698;52.014;5.190;2023-12-20T09:19:18;101412.75;;;15.19;100.00
37860;BME280;23698;52.014;5.190;2023-12-20T09:22:04;101415.69;;;15.18;100.00
37860;BME280;23698;52.014;5.190;2023-12-20T09:24:51;101409.00;;;15.54;100.00
37860;BME280;23698;52.014;5.190;2023-12-20T09:27:37;101398.03;;;15.00;100.00
37860;BME280;23698;52.014;5.190;2023-12-20T09:30:24;101401.88;;;14.51;100.00
37860;BME280;23698;52.014;5.190;2023-12-20T09:33:12;101402.78;;;14.65;100.00
37860;BME280;23698;52.014;5.190;2023-12-20T09:36:00;101402.06;;;15.64;100.00
37860;BME280;23698;52.014;5.190;2023-12-20T09:38:47;101393.00;;;15.04;100.00
37860;BME280;23698;52.014;5.190;2023-12-20T09:41:37;101398.00;;;16.07;100.00
37860;BME280;23698;52.014;5.190;2023-12-20T09:44:27;101397.81;;;15.68;100.00
37860;BME280;23698;52.014;5.190;2023-12-20T09:47:15;101408.94;;;15.00;100.00
37860;BME280;23698;52.014;5.190;2023-12-20T09:50:02;101415.44;;;16.65;100.00
37860;BME280;23698;52.014;5.190;2023-12-20T09:52:51;101422.19;;;17.07;100.00
37860;BME280;23698;52.014;5.190;2023-12-20T09:55:38;101417.31;;;16.26;100.00
37860;BME280;23698;52.014;5.190;2023-12-20T09:58:25;101415.88;;;16.16;100.00
37860;BME280;23698;52.014;5.190;2023-12-20T10:01:12;101422.03;;;17.27;100.00
37860;BME280;23698;52.014;5.190;2023-12-20T10:04:00;101421.28;;;16.30;100.00
37860;BME280;23698;52.014;5.190;2023-12-20T10:06:49;101425.38;;;17.29;100.00
37860;BME280;23698;52.014;5.190;2023-12-20T10:09:37;101427.44;;;17.41;100.00
37860;BME280;23698;52.014;5.190;2023-12-20T10:12:24;101427.59;;;16.75;100.00
37860;BME280;23698;52.014;5.190;2023-12-20T10:15:10;101427.91;;;15.35;100.00
37860;BME280;23698;52.014;5.190;2023-12-20T10:17:57;101434.41;;;17.87;100.00
37860;BME280;23698;52.014;5.190;2023-12-20T10:20:47;101427.69;;;17.32;100.00
37860;BME280;23698;52.014;5.190;2023-12-20T10:23:34;101418.16;;;16.71;100.00
37860;BME280;23698;52.014;5.190;2023-12-20T10:26:22;101424.13;;;15.63;100.00
37860;BME280;23698;52.014;5.190;2023-12-20T10:29:09;101403.75;;;16.89;100.00
37860;BME280;23698;52.014;5.190;2023-12-20T10:31:56;101410.53;;;16.28;100.00
37860;BME280;23698;52.014;5.190;2023-12-20T10:34:43;101416.56;;;17.52;100.00
37860;BME280;23698;52.014;5.190;2023-12-20T10:37:30;101412.00;;;17.21;100.00
37860;BME280;23698;52.014;5.190;2023-12-20T10:40:16;101407.63;;;16.68;100.00
37860;BME280;23698;52.014;5.190;2023-12-20T10:43:05;101414.31;;;17.93;100.00
37860;BME280;23698;52.014;5.190;2023-12-20T10:45:52;101413.44;;;17.49;100.00
37860;BME280;23698;52.014;5.190;2023-12-20T10:48:39;101404.94;;;18.01;100.00
37860;BME280;23698;52.014;5.190;2023-12-20T10:51:26;101404.59;;;18.16;100.00
37860;BME280;23698;52.014;5.190;2023-12-20T10:54:15;101396.50;;;17.33;100.00
37860;BME280;23698;52.014;5.190;2023-12-20T10:57:04;101398.53;;;18.25;100.00
37860;BME280;23698;52.014;5.190;2023-12-20T10:59:53;101391.88;;;18.52;100.00
37860;BME280;23698;52.014;5.190;2023-12-20T11:02:40;101387.69;;;18.79;100.00
37860;BME280;23698;52.014;5.190;2023-12-20T11:05:35;101377.88;;;16.78;100.00
37860;BME280;23698;52.014;5.190;2023-12-20T11:08:31;101374.00;;;17.50;100.00
37860;BME280;23698;52.014;5.190;2023-12-20T11:11:25;101368.47;;;19.10;100.00
37860;BME280;23698;52.014;5.190;2023-12-20T11:14:19;101372.41;;;18.23;100.00
37860;BME280;23698;52.014;5.190;2023-12-20T11:17:10;101367.38;;;18.99;100.00
37860;BME280;23698;52.014;5.190;2023-12-20T11:20:06;101379.59;;;17.80;100.00
37860;BME280;23698;52.014;5.190;2023-12-20T11:22:55;101370.34;;;18.97;100.00
37860;BME280;23698;52.014;5.190;2023-12-20T11:25:50;101377.91;;;17.86;100.00
37860;BME280;23698;52.014;5.190;2023-12-20T11:28:37;101382.56;;;17.79;100.00
37860;BME280;23698;52.014;5.190;2023-12-20T11:31:27;101367.50;;;18.74;100.00
37860;BME280;23698;52.014;5.190;2023-12-20T11:34:17;101372.72;;;18.15;100.00
37860;BME280;23698;52.014;5.190;2023-12-20T11:37:03;101355.34;;;18.02;100.00
37860;BME280;23698;52.014;5.190;2023-12-20T11:39:54;101360.78;;;18.69;100.00
37860;BME280;23698;52.014;5.190;2023-12-20T11:42:41;101347.19;;;18.63;100.00
37860;BME280;23698;52.014;5.190;2023-12-20T11:45:28;101340.31;;;19.38;100.00
37860;BME280;23698;52.014;5.190;2023-12-20T11:48:15;101342.28;;;18.65;100.00
37860;BME280;23698;52.014;5.190;2023-12-20T11:51:09;101331.19;;;18.41;100.00
37860;BME280;23698;52.014;5.190;2023-12-20T11:53:55;101326.34;;;17.69;100.00
37860;BME280;23698;52.014;5.190;2023-12-20T11:56:41;101318.28;;;18.11;100.00
37860;BME280;23698;52.014;5.190;2023-12-20T11:59:28;101320.81;;;20.27;100.00
37860;BME280;23698;52.014;5.190;2023-12-20T12:02:14;101330.97;;;17.94;100.00
37860;BME280;23698;52.014;5.190;2023-12-20T12:05:01;101328.47;;;19.49;100.00
37860;BME280;23698;52.014;5.190;2023-12-20T12:07:51;101316.13;;;19.63;100.00
37860;BME280;23698;52.014;5.190;2023-12-20T12:10:38;101325.63;;;18.48;100.00
37860;BME280;23698;52.014;5.190;2023-12-20T12:13:25;101327.56;;;18.90;100.00
37860;BME280;23698;52.014;5.190;2023-12-20T12:16:16;101330.19;;;18.54;100.00
37860;BME280;23698;52.014;5.190;2023-12-20T12:19:03;101332.31;;;16.20;100.00
37860;BME280;23698;52.014;5.190;2023-12-20T12:21:49;101335.03;;;18.40;100.00
37860;BME280;23698;52.014;5.190;2023-12-20T12:24:38;101327.25;;;18.98;100.00
37860;BME280;23698;52.014;5.190;2023-12-20T12:27:24;101327.25;;;18.67;100.00
37860;BME280;23698;52.014;5.190;2023-12-20T12:30:11;101325.53;;;18.06;100.00
37860;BME280;23698;52.014;5.190;2023-12-20T12:32:59;101319.69;;;18.02;100.00
37860;BME280;23698;52.014;5.190;2023-12-20T12:35:46;101310.34;;;17.66;100.00
37860;BME280;23698;52.014;5.190;2023-12-20T12:38:33;101314.16;;;16.96;100.00
37860;BME280;23698;52.014;5.190;2023-12-20T12:41:21;101302.63;;;18.00;100.00
37860;BME280;23698;52.014;5.190;2023-12-20T12:44:08;101297.19;;;17.57;100.00
37860;BME280;23698;52.014;5.190;2023-12-20T12:47:03;101292.81;;;17.30;100.00
37860;BME280;23698;52.014;5.190;2023-12-20T12:49:51;101281.38;;;19.57;100.00
37860;BME280;23698;52.014;5.190;2023-12-20T12:52:38;101287.22;;;18.60;100.00
37860;BME280;23698;52.014;5.190;2023-12-20T12:55:24;101283.88;;;17.97;100.00
37860;BME280;23698;52.014;5.190;2023-12-20T12:58:12;101285.66;;;19.06;100.00
37860;BME280;23698;52.014;5.190;2023-12-20T13:00:59;101273.13;;;18.98;100.00
37860;BME280;23698;52.014;5.190;2023-12-20T13:03:46;101270.81;;;19.78;100.00
37860;BME280;23698;52.014;5.190;2023-12-20T13:06:32;101271.00;;;19.12;100.00
37860;BME280;23698;52.014;5.190;2023-12-20T13:09:18;101258.25;;;17.66;100.00
37860;BME280;23698;52.014;5.190;2023-12-20T13:12:05;101252.47;;;16.69;100.00
37860;BME280;23698;52.014;5.190;2023-12-20T13:14:53;101252.47;;;17.38;100.00
37860;BME280;23698;52.014;5.190;2023-12-20T13:17:40;101247.00;;;16.69;100.00
37860;BME280;23698;52.014;5.190;2023-12-20T13:20:26;101239.53;;;18.30;100.00
37860;BME280;23698;52.014;5.190;2023-12-20T13:23:13;101233.75;;;17.34;100.00
37860;BME280;23698;52.014;5.190;2023-12-20T13:25:59;101219.63;;;16.69;100.00
37860;BME280;23698;52.014;5.190;2023-12-20T13:28:46;101239.03;;;17.54;100.00
37860;BME280;23698;52.014;5.190;2023-12-20T13:31:34;101251.31;;;18.19;100.00
37860;BME280;23698;52.014;5.190;2023-12-20T13:34:21;101230.25;;;16.77;100.00
37860;BME280;23698;52.014;5.190;2023-12-20T13:37:09;101228.09;;;17.66;100.00
37860;BME280;23698;52.014;5.190;2023-12-20T13:39:55;101218.34;;;18.49;100.00
37860;BME280;23698;52.014;5.190;2023-12-20T13:42:41;101223.16;;;17.38;100.00
37860;BME280;23698;52.014;5.190;2023-12-20T13:45:28;101198.94;;;18.21;100.00
37860;BME280;23698;52.014;5.190;2023-12-20T13:48:15;101205.28;;;17.17;100.00
37860;BME280;23698;52.014;5.190;2023-12-20T13:51:02;101208.53;;;17.81;100.00
37860;BME280;23698;52.014;5.190;2023-12-20T13:53:51;101193.22;;;17.73;100.00
37860;BME280;23698;52.014;5.190;2023-12-20T13:56:37;101198.75;;;16.68;100.00
37860;BME280;23698;52.014;5.190;2023-12-20T13:59:40;101202.00;;;18.66;100.00
37860;BME280;23698;52.014;5.190;2023-12-20T14:02:27;101204.56;;;16.53;100.00
37860;BME280;23698;52.014;5.190;2023-12-20T14:05:15;101203.19;;;16.94;100.00
37860;BME280;23698;52.014;5.190;2023-12-20T14:08:03;101184.66;;;17.33;100.00
37860;BME280;23698;52.014;5.190;2023-12-20T14:10:50;101193.25;;;17.36;100.00
37860;BME280;23698;52.014;5.190;2023-12-20T14:13:36;101201.97;;;16.33;100.00
37860;BME280;23698;52.014;5.190;2023-12-20T14:16:23;101211.44;;;16.30;100.00
37860;BME280;23698;52.014;5.190;2023-12-20T14:19:10;101205.59;;;16.27;100.00
37860;BME280;23698;52.014;5.190;2023-12-20T14:21:58;101190.25;;;17.75;100.00
37860;BME280;23698;52.014;5.190;2023-12-20T14:24:46;101199.47;;;16.56;100.00